sensor_id;sensor_type;location;lat;lon;timestamp;P1;durP1;ratioP1;P2;durP2;ratioP2
35225;SDS011;21813;49.686;21.766;2023-06-14T00:01:47;8.90;;;4.70;;
35225;SDS011;21813;49.686;21.766;2023-06-14T00:04:14;6.57;;;4.95;;
35225;SDS011;21813;49.686;21.766;2023-06-14T00:06:42;7.47;;;5.00;;
35225;SDS011;21813;49.686;21.766;2023-06-14T00:09:11;5.10;;;4.55;;
35225;SDS011;21813;49.686;21.766;2023-06-14T00:11:40;8.27;;;5.03;;
35225;SDS011;21813;49.686;21.766;2023-06-14T00:14:07;7.30;;;4.80;;
35225;SDS011;21813;49.686;21.766;2023-06-14T00:16:33;5.30;;;4.80;;
35225;SDS011;21813;49.686;21.766;2023-06-14T00:19:03;9.77;;;5.07;;
35225;SDS011;21813;49.686;21.766;2023-06-14T00:21:30;5.95;;;5.13;;
35225;SDS011;21813;49.686;21.766;2023-06-14T00:23:57;7.60;;;6.57;;
35225;SDS011;21813;49.686;21.766;2023-06-14T00:26:24;8.50;;;5.43;;
35225;SDS011;21813;49.686;21.766;2023-06-14T00:28:52;8.50;;;5.80;;
35225;SDS011;21813;49.686;21.766;2023-06-14T00:31:18;7.07;;;5.43;;
35225;SDS011;21813;49.686;21.766;2023-06-14T00:33:44;8.50;;;5.70;;
35225;SDS011;21813;49.686;21.766;2023-06-14T00:36:10;11.15;;;6.38;;
35225;SDS011;21813;49.686;21.766;2023-06-14T00:38:36;7.07;;;6.10;;
35225;SDS011;21813;49.686;21.766;2023-06-14T00:41:01;7.03;;;5.88;;
35225;SDS011;21813;49.686;21.766;2023-06-14T00:43:27;9.45;;;6.60;;
35225;SDS011;21813;49.686;21.766;2023-06-14T00:45:53;10.10;;;5.78;;
35225;SDS011;21813;49.686;21.766;2023-06-14T00:48:19;11.20;;;7.47;;
35225;SDS011;21813;49.686;21.766;2023-06-14T00:50:45;7.70;;;6.65;;
35225;SDS011;21813;49.686;21.766;2023-06-14T00:53:11;17.27;;;8.88;;
35225;SDS011;21813;49.686;21.766;2023-06-14T00:55:40;12.80;;;9.43;;
35225;SDS011;21813;49.686;21.766;2023-06-14T00:58:07;12.73;;;10.23;;
35225;SDS011;21813;49.686;21.766;2023-06-14T01:00:33;12.15;;;9.60;;
35225;SDS011;21813;49.686;21.766;2023-06-14T01:02:59;17.77;;;12.82;;
35225;SDS011;21813;49.686;21.766;2023-06-14T01:05:26;16.85;;;13.35;;
35225;SDS011;21813;49.686;21.766;2023-06-14T01:13:24;21.35;;;14.38;;
35225;SDS011;21813;49.686;21.766;2023-06-14T01:15:58;18.67;;;14.40;;
35225;SDS011;21813;49.686;21.766;2023-06-14T01:18:25;25.30;;;15.38;;
35225;SDS011;21813;49.686;21.766;2023-06-14T01:20:55;21.48;;;16.58;;
35225;SDS011;21813;49.686;21.766;2023-06-14T01:23:22;19.13;;;14.90;;
35225;SDS011;21813;49.686;21.766;2023-06-14T01:25:48;23.38;;;16.50;;
35225;SDS011;21813;49.686;21.766;2023-06-14T01:28:18;19.40;;;15.93;;
35225;SDS011;21813;49.686;21.766;2023-06-14T01:30:47;20.88;;;15.35;;
35225;SDS011;21813;49.686;21.766;2023-06-14T01:33:19;24.23;;;17.25;;
35225;SDS011;21813;49.686;21.766;2023-06-14T01:35:48;23.23;;;17.20;;
35225;SDS011;21813;49.686;21.766;2023-06-14T01:38:15;24.98;;;18.52;;
35225;SDS011;21813;49.686;21.766;2023-06-14T01:40:43;23.05;;;17.48;;
35225;SDS011;21813;49.686;21.766;2023-06-14T01:43:10;28.23;;;19.15;;
35225;SDS011;21813;49.686;21.766;2023-06-14T01:45:38;29.10;;;18.55;;
35225;SDS011;21813;49.686;21.766;2023-06-14T01:48:07;27.10;;;18.38;;
35225;SDS011;21813;49.686;21.766;2023-06-14T01:50:33;25.67;;;19.10;;
35225;SDS011;21813;49.686;21.766;2023-06-14T01:53:00;25.33;;;18.70;;
35225;SDS011;21813;49.686;21.766;2023-06-14T01:55:25;27.95;;;19.17;;
35225;SDS011;21813;49.686;21.766;2023-06-14T01:57:52;25.98;;;18.77;;
35225;SDS011;21813;49.686;21.766;2023-06-14T02:00:18;24.75;;;18.50;;
35225;SDS011;21813;49.686;21.766;2023-06-14T02:02:45;24.10;;;18.48;;
35225;SDS011;21813;49.686;21.766;2023-06-14T02:05:11;25.60;;;18.95;;
35225;SDS011;21813;49.686;21.766;2023-06-14T02:07:37;27.33;;;19.08;;
35225;SDS011;21813;49.686;21.766;2023-06-14T02:10:03;27.85;;;19.83;;
35225;SDS011;21813;49.686;21.766;2023-06-14T02:12:29;27.90;;;19.48;;
35225;SDS011;21813;49.686;21.766;2023-06-14T02:14:55;29.40;;;18.73;;
35225;SDS011;21813;49.686;21.766;2023-06-14T02:17:22;24.52;;;18.83;;
35225;SDS011;21813;49.686;21.766;2023-06-14T02:19:48;24.20;;;18.40;;
35225;SDS011;21813;49.686;21.766;2023-06-14T02:22:14;24.60;;;18.88;;
35225;SDS011;21813;49.686;21.766;2023-06-14T02:24:41;27.38;;;19.00;;
35225;SDS011;21813;49.686;21.766;2023-06-14T02:27:07;29.30;;;19.77;;
35225;SDS011;21813;49.686;21.766;2023-06-14T02:29:35;24.83;;;17.60;;
35225;SDS011;21813;49.686;21.766;2023-06-14T02:32:02;26.25;;;17.90;;
35225;SDS011;21813;49.686;21.766;2023-06-14T02:34:27;26.92;;;19.60;;
35225;SDS011;21813;49.686;21.766;2023-06-14T02:36:54;27.80;;;20.85;;
35225;SDS011;21813;49.686;21.766;2023-06-14T02:39:20;29.42;;;20.45;;
35225;SDS011;21813;49.686;21.766;2023-06-14T02:41:49;27.88;;;20.20;;
35225;SDS011;21813;49.686;21.766;2023-06-14T02:44:18;26.48;;;18.88;;
35225;SDS011;21813;49.686;21.766;2023-06-14T02:46:44;29.80;;;19.08;;
35225;SDS011;21813;49.686;21.766;2023-06-14T02:49:11;26.02;;;19.75;;
35225;SDS011;21813;49.686;21.766;2023-06-14T02:51:37;28.83;;;19.33;;
35225;SDS011;21813;49.686;21.766;2023-06-14T02:54:02;28.67;;;20.05;;
35225;SDS011;21813;49.686;21.766;2023-06-14T02:56:28;28.55;;;18.80;;
35225;SDS011;21813;49.686;21.766;2023-06-14T02:58:54;27.30;;;19.52;;
35225;SDS011;21813;49.686;21.766;2023-06-14T03:01:20;26.33;;;18.77;;
35225;SDS011;21813;49.686;21.766;2023-06-14T03:03:46;27.02;;;19.80;;
35225;SDS011;21813;49.686;21.766;2023-06-14T03:06:12;31.25;;;19.10;;
35225;SDS011;21813;49.686;21.766;2023-06-14T03:08:42;22.58;;;17.88;;
35225;SDS011;21813;49.686;21.766;2023-06-14T03:11:09;23.42;;;18.02;;
35225;SDS011;21813;49.686;21.766;2023-06-14T03:13:35;27.77;;;18.95;;
35225;SDS011;21813;49.686;21.766;2023-06-14T03:16:00;23.65;;;17.70;;
35225;SDS011;21813;49.686;21.766;2023-06-14T03:18:28;23.67;;;17.88;;
35225;SDS011;21813;49.686;21.766;2023-06-14T03:20:56;22.67;;;16.48;;
35225;SDS011;21813;49.686;21.766;2023-06-14T03:23:23;41.38;;;19.58;;
35225;SDS011;21813;49.686;21.766;2023-06-14T03:25:51;26.15;;;18.08;;
35225;SDS011;21813;49.686;21.766;2023-06-14T03:28:16;25.38;;;18.27;;
35225;SDS011;21813;49.686;21.766;2023-06-14T03:30:43;22.33;;;17.60;;
35225;SDS011;21813;49.686;21.766;2023-06-14T03:33:08;23.55;;;17.38;;
35225;SDS011;21813;49.686;21.766;2023-06-14T03:35:34;21.13;;;16.55;;
35225;SDS011;21813;49.686;21.766;2023-06-14T03:38:00;22.00;;;16.20;;
35225;SDS011;21813;49.686;21.766;2023-06-14T03:40:28;27.75;;;18.08;;
35225;SDS011;21813;49.686;21.766;2023-06-14T03:42:54;26.25;;;17.75;;
35225;SDS011;21813;49.686;21.766;2023-06-14T03:45:20;22.25;;;17.48;;
35225;SDS011;21813;49.686;21.766;2023-06-14T03:47:46;21.15;;;16.27;;
35225;SDS011;21813;49.686;21.766;2023-06-14T03:50:14;24.30;;;17.08;;
35225;SDS011;21813;49.686;21.766;2023-06-14T03:52:40;24.75;;;17.42;;
35225;SDS011;21813;49.686;21.766;2023-06-14T03:55:08;18.88;;;15.80;;
35225;SDS011;21813;49.686;21.766;2023-06-14T03:57:34;22.27;;;15.98;;
35225;SDS011;21813;49.686;21.766;2023-06-14T04:00:00;18.50;;;14.95;;
35225;SDS011;21813;49.686;21.766;2023-06-14T04:02:25;22.10;;;15.65;;
35225;SDS011;21813;49.686;21.766;2023-06-14T04:04:57;21.38;;;15.27;;
35225;SDS011;21813;49.686;21.766;2023-06-14T04:07:23;22.88;;;15.93;;
35225;SDS011;21813;49.686;21.766;2023-06-14T04:09:49;21.00;;;15.43;;
35225;SDS011;21813;49.686;21.766;2023-06-14T04:12:15;18.27;;;14.10;;
35225;SDS011;21813;49.686;21.766;2023-06-14T04:14:41;21.58;;;15.65;;
35225;SDS011;21813;49.686;21.766;2023-06-14T04:17:07;21.10;;;14.88;;
35225;SDS011;21813;49.686;21.766;2023-06-14T04:19:33;19.50;;;14.57;;
35225;SDS011;21813;49.686;21.766;2023-06-14T04:21:58;18.52;;;14.60;;
35225;SDS011;21813;49.686;21.766;2023-06-14T04:24:30;16.98;;;14.50;;
35225;SDS011;21813;49.686;21.766;2023-06-14T04:27:00;18.88;;;13.32;;
35225;SDS011;21813;49.686;21.766;2023-06-14T04:29:26;17.60;;;14.20;;
35225;SDS011;21813;49.686;21.766;2023-06-14T04:31:54;18.60;;;14.32;;
35225;SDS011;21813;49.686;21.766;2023-06-14T04:34:25;19.80;;;13.30;;
35225;SDS011;21813;49.686;21.766;2023-06-14T04:36:58;12.32;;;10.15;;
35225;SDS011;21813;49.686;21.766;2023-06-14T04:39:25;15.68;;;12.55;;
35225;SDS011;21813;49.686;21.766;2023-06-14T04:41:51;18.05;;;13.60;;
35225;SDS011;21813;49.686;21.766;2023-06-14T04:44:18;16.27;;;12.85;;
35225;SDS011;21813;49.686;21.766;2023-06-14T04:46:45;15.63;;;11.77;;
35225;SDS011;21813;49.686;21.766;2023-06-14T04:49:12;19.42;;;12.52;;
35225;SDS011;21813;49.686;21.766;2023-06-14T04:51:43;16.23;;;12.43;;
35225;SDS011;21813;49.686;21.766;2023-06-14T04:54:11;16.17;;;11.80;;
35225;SDS011;21813;49.686;21.766;2023-06-14T04:56:41;14.05;;;11.35;;
35225;SDS011;21813;49.686;21.766;2023-06-14T04:59:13;14.23;;;11.30;;
35225;SDS011;21813;49.686;21.766;2023-06-14T05:01:40;16.83;;;11.65;;
35225;SDS011;21813;49.686;21.766;2023-06-14T05:04:14;17.63;;;12.10;;
35225;SDS011;21813;49.686;21.766;2023-06-14T05:06:41;13.40;;;11.10;;
35225;SDS011;21813;49.686;21.766;2023-06-14T05:09:10;18.05;;;10.93;;
35225;SDS011;21813;49.686;21.766;2023-06-14T05:11:37;13.93;;;10.48;;
35225;SDS011;21813;49.686;21.766;2023-06-14T05:14:02;17.23;;;11.55;;
35225;SDS011;21813;49.686;21.766;2023-06-14T05:16:28;12.18;;;10.45;;
35225;SDS011;21813;49.686;21.766;2023-06-14T05:18:55;15.23;;;10.90;;
35225;SDS011;21813;49.686;21.766;2023-06-14T05:21:20;11.93;;;10.27;;
35225;SDS011;21813;49.686;21.766;2023-06-14T05:23:49;12.52;;;10.65;;
35225;SDS011;21813;49.686;21.766;2023-06-14T05:26:16;18.17;;;10.65;;
35225;SDS011;21813;49.686;21.766;2023-06-14T05:28:42;13.15;;;10.23;;
35225;SDS011;21813;49.686;21.766;2023-06-14T05:31:07;12.93;;;9.68;;
35225;SDS011;21813;49.686;21.766;2023-06-14T05:33:33;13.73;;;9.05;;
35225;SDS011;21813;49.686;21.766;2023-06-14T05:35:59;12.02;;;9.57;;
35225;SDS011;21813;49.686;21.766;2023-06-14T05:38:26;12.00;;;9.70;;
35225;SDS011;21813;49.686;21.766;2023-06-14T05:40:52;13.85;;;10.35;;
35225;SDS011;21813;49.686;21.766;2023-06-14T05:43:20;12.50;;;9.55;;
35225;SDS011;21813;49.686;21.766;2023-06-14T05:45:46;14.95;;;9.98;;
35225;SDS011;21813;49.686;21.766;2023-06-14T05:48:14;12.65;;;10.35;;
35225;SDS011;21813;49.686;21.766;2023-06-14T05:50:39;13.48;;;10.13;;
35225;SDS011;21813;49.686;21.766;2023-06-14T05:53:06;11.18;;;9.85;;
35225;SDS011;21813;49.686;21.766;2023-06-14T05:55:31;11.68;;;10.10;;
35225;SDS011;21813;49.686;21.766;2023-06-14T05:57:59;12.82;;;9.25;;
35225;SDS011;21813;49.686;21.766;2023-06-14T06:00:25;13.55;;;9.18;;
35225;SDS011;21813;49.686;21.766;2023-06-14T06:02:52;13.30;;;9.23;;
35225;SDS011;21813;49.686;21.766;2023-06-14T06:05:18;12.50;;;9.90;;
35225;SDS011;21813;49.686;21.766;2023-06-14T06:07:47;12.57;;;9.45;;
35225;SDS011;21813;49.686;21.766;2023-06-14T06:10:13;13.77;;;10.75;;
35225;SDS011;21813;49.686;21.766;2023-06-14T06:12:41;13.95;;;9.93;;
35225;SDS011;21813;49.686;21.766;2023-06-14T06:15:07;12.82;;;9.48;;
35225;SDS011;21813;49.686;21.766;2023-06-14T06:17:38;13.07;;;10.25;;
35225;SDS011;21813;49.686;21.766;2023-06-14T06:20:04;14.55;;;9.68;;
35225;SDS011;21813;49.686;21.766;2023-06-14T06:22:34;12.93;;;10.45;;
35225;SDS011;21813;49.686;21.766;2023-06-14T06:25:00;14.40;;;10.80;;
35225;SDS011;21813;49.686;21.766;2023-06-14T06:27:27;12.40;;;10.38;;
35225;SDS011;21813;49.686;21.766;2023-06-14T06:29:52;14.45;;;9.95;;
35225;SDS011;21813;49.686;21.766;2023-06-14T06:32:20;16.48;;;11.27;;
35225;SDS011;21813;49.686;21.766;2023-06-14T06:34:45;15.38;;;11.27;;
35225;SDS011;21813;49.686;21.766;2023-06-14T06:37:12;15.18;;;11.68;;
35225;SDS011;21813;49.686;21.766;2023-06-14T06:39:39;14.95;;;11.00;;
35225;SDS011;21813;49.686;21.766;2023-06-14T06:42:06;13.77;;;11.25;;
35225;SDS011;21813;49.686;21.766;2023-06-14T06:44:32;15.35;;;11.57;;
35225;SDS011;21813;49.686;21.766;2023-06-14T06:47:02;15.27;;;12.35;;
35225;SDS011;21813;49.686;21.766;2023-06-14T06:49:28;18.70;;;11.82;;
35225;SDS011;21813;49.686;21.766;2023-06-14T06:51:59;20.48;;;11.45;;
35225;SDS011;21813;49.686;21.766;2023-06-14T06:54:27;14.70;;;11.15;;
35225;SDS011;21813;49.686;21.766;2023-06-14T06:56:54;15.45;;;11.43;;
35225;SDS011;21813;49.686;21.766;2023-06-14T06:59:19;17.20;;;10.90;;
35225;SDS011;21813;49.686;21.766;2023-06-14T07:01:46;21.48;;;12.05;;
35225;SDS011;21813;49.686;21.766;2023-06-14T07:04:12;20.17;;;11.35;;
35225;SDS011;21813;49.686;21.766;2023-06-14T07:06:41;15.35;;;10.80;;
35225;SDS011;21813;49.686;21.766;2023-06-14T07:09:08;13.55;;;10.38;;
35225;SDS011;21813;49.686;21.766;2023-06-14T07:11:38;12.52;;;11.10;;
35225;SDS011;21813;49.686;21.766;2023-06-14T07:14:05;17.08;;;11.52;;
35225;SDS011;21813;49.686;21.766;2023-06-14T07:16:32;15.05;;;11.82;;
35225;SDS011;21813;49.686;21.766;2023-06-14T07:18:58;17.42;;;11.32;;
35225;SDS011;21813;49.686;21.766;2023-06-14T07:21:24;16.20;;;10.73;;
35225;SDS011;21813;49.686;21.766;2023-06-14T07:23:51;15.13;;;10.68;;
35225;SDS011;21813;49.686;21.766;2023-06-14T07:26:25;19.27;;;11.00;;
35225;SDS011;21813;49.686;21.766;2023-06-14T07:28:51;12.80;;;9.80;;
35225;SDS011;21813;49.686;21.766;2023-06-14T07:31:34;13.60;;;10.52;;
35225;SDS011;21813;49.686;21.766;2023-06-14T07:34:12;9.60;;;8.23;;
35225;SDS011;21813;49.686;21.766;2023-06-14T07:36:48;12.05;;;9.30;;
35225;SDS011;21813;49.686;21.766;2023-06-14T07:39:19;11.83;;;9.13;;
35225;SDS011;21813;49.686;21.766;2023-06-14T07:41:51;12.10;;;9.48;;
35225;SDS011;21813;49.686;21.766;2023-06-14T07:44:16;9.77;;;7.53;;
35225;SDS011;21813;49.686;21.766;2023-06-14T07:46:45;10.75;;;8.07;;
35225;SDS011;21813;49.686;21.766;2023-06-14T07:49:15;10.30;;;7.47;;
35225;SDS011;21813;49.686;21.766;2023-06-14T07:51:42;11.30;;;7.65;;
35225;SDS011;21813;49.686;21.766;2023-06-14T07:54:09;8.50;;;6.85;;
35225;SDS011;21813;49.686;21.766;2023-06-14T07:56:36;8.95;;;6.55;;
35225;SDS011;21813;49.686;21.766;2023-06-14T07:59:02;9.90;;;7.75;;
35225;SDS011;21813;49.686;21.766;2023-06-14T08:01:30;9.10;;;6.95;;
35225;SDS011;21813;49.686;21.766;2023-06-14T08:03:57;7.75;;;6.18;;
35225;SDS011;21813;49.686;21.766;2023-06-14T08:06:24;10.15;;;7.28;;
35225;SDS011;21813;49.686;21.766;2023-06-14T08:08:50;7.13;;;5.97;;
35225;SDS011;21813;49.686;21.766;2023-06-14T08:11:18;10.55;;;6.80;;
35225;SDS011;21813;49.686;21.766;2023-06-14T08:13:44;7.60;;;5.40;;
35225;SDS011;21813;49.686;21.766;2023-06-14T08:16:12;6.25;;;5.35;;
35225;SDS011;21813;49.686;21.766;2023-06-14T08:18:42;8.40;;;6.25;;
35225;SDS011;21813;49.686;21.766;2023-06-14T08:21:10;9.10;;;6.28;;
35225;SDS011;21813;49.686;21.766;2023-06-14T08:23:36;8.05;;;5.63;;
35225;SDS011;21813;49.686;21.766;2023-06-14T08:26:02;7.55;;;6.32;;
35225;SDS011;21813;49.686;21.766;2023-06-14T08:28:29;7.20;;;5.82;;
35225;SDS011;21813;49.686;21.766;2023-06-14T08:30:56;7.38;;;5.78;;
35225;SDS011;21813;49.686;21.766;2023-06-14T08:33:22;8.38;;;6.25;;
35225;SDS011;21813;49.686;21.766;2023-06-14T08:35:48;9.02;;;6.05;;
35225;SDS011;21813;49.686;21.766;2023-06-14T08:38:14;5.22;;;4.72;;
35225;SDS011;21813;49.686;21.766;2023-06-14T08:40:42;7.15;;;5.47;;
35225;SDS011;21813;49.686;21.766;2023-06-14T08:43:10;8.85;;;5.55;;
35225;SDS011;21813;49.686;21.766;2023-06-14T08:45:38;7.45;;;5.93;;
35225;SDS011;21813;49.686;21.766;2023-06-14T08:48:04;7.13;;;6.07;;
35225;SDS011;21813;49.686;21.766;2023-06-14T08:50:33;9.80;;;6.30;;
35225;SDS011;21813;49.686;21.766;2023-06-14T08:53:02;9.15;;;5.05;;
35225;SDS011;21813;49.686;21.766;2023-06-14T08:55:29;8.13;;;5.95;;
35225;SDS011;21813;49.686;21.766;2023-06-14T08:57:56;6.93;;;5.15;;
35225;SDS011;21813;49.686;21.766;2023-06-14T09:00:29;7.95;;;5.32;;
35225;SDS011;21813;49.686;21.766;2023-06-14T09:02:56;6.53;;;5.18;;
35225;SDS011;21813;49.686;21.766;2023-06-14T09:05:25;7.65;;;5.50;;
35225;SDS011;21813;49.686;21.766;2023-06-14T09:07:53;6.38;;;5.78;;
35225;SDS011;21813;49.686;21.766;2023-06-14T09:10:27;6.38;;;5.40;;
35225;SDS011;21813;49.686;21.766;2023-06-14T09:12:53;5.78;;;5.13;;
35225;SDS011;21813;49.686;21.766;2023-06-14T09:15:20;5.65;;;4.97;;
35225;SDS011;21813;49.686;21.766;2023-06-14T09:17:46;7.13;;;5.80;;
35225;SDS011;21813;49.686;21.766;2023-06-14T09:20:14;8.55;;;5.75;;
35225;SDS011;21813;49.686;21.766;2023-06-14T09:22:44;8.80;;;6.30;;
35225;SDS011;21813;49.686;21.766;2023-06-14T09:25:12;7.22;;;5.60;;
35225;SDS011;21813;49.686;21.766;2023-06-14T09:27:40;6.20;;;5.20;;
35225;SDS011;21813;49.686;21.766;2023-06-14T09:30:09;8.57;;;4.78;;
35225;SDS011;21813;49.686;21.766;2023-06-14T09:32:36;6.20;;;5.00;;
35225;SDS011;21813;49.686;21.766;2023-06-14T09:35:08;6.22;;;5.35;;
35225;SDS011;21813;49.686;21.766;2023-06-14T09:37:36;6.72;;;6.05;;
35225;SDS011;21813;49.686;21.766;2023-06-14T09:40:06;11.48;;;5.65;;
35225;SDS011;21813;49.686;21.766;2023-06-14T09:42:32;7.32;;;5.90;;
35225;SDS011;21813;49.686;21.766;2023-06-14T09:45:02;6.95;;;5.60;;
35225;SDS011;21813;49.686;21.766;2023-06-14T09:47:29;4.82;;;4.32;;
35225;SDS011;21813;49.686;21.766;2023-06-14T09:53:10;8.43;;;5.90;;
35225;SDS011;21813;49.686;21.766;2023-06-14T09:55:39;7.22;;;6.25;;
35225;SDS011;21813;49.686;21.766;2023-06-14T09:58:07;7.47;;;5.70;;
35225;SDS011;21813;49.686;21.766;2023-06-14T10:00:36;6.35;;;5.72;;
35225;SDS011;21813;49.686;21.766;2023-06-14T10:03:05;7.47;;;6.30;;
35225;SDS011;21813;49.686;21.766;2023-06-14T10:05:38;9.73;;;6.88;;
35225;SDS011;21813;49.686;21.766;2023-06-14T10:08:10;6.90;;;6.20;;
35225;SDS011;21813;49.686;21.766;2023-06-14T10:10:42;9.50;;;7.50;;
35225;SDS011;21813;49.686;21.766;2023-06-14T10:13:09;9.15;;;7.45;;
35225;SDS011;21813;49.686;21.766;2023-06-14T10:18:45;8.38;;;6.45;;
35225;SDS011;21813;49.686;21.766;2023-06-14T10:24:45;8.25;;;6.03;;
35225;SDS011;21813;49.686;21.766;2023-06-14T10:27:20;6.85;;;6.15;;
35225;SDS011;21813;49.686;21.766;2023-06-14T10:32:24;4.95;;;4.43;;
35225;SDS011;21813;49.686;21.766;2023-06-14T10:34:55;6.75;;;5.57;;
35225;SDS011;21813;49.686;21.766;2023-06-14T10:37:27;6.47;;;5.22;;
35225;SDS011;21813;49.686;21.766;2023-06-14T10:39:53;9.10;;;5.32;;
35225;SDS011;21813;49.686;21.766;2023-06-14T10:42:21;10.82;;;6.03;;
35225;SDS011;21813;49.686;21.766;2023-06-14T10:44:54;7.13;;;6.18;;
35225;SDS011;21813;49.686;21.766;2023-06-14T10:47:25;7.50;;;5.68;;
35225;SDS011;21813;49.686;21.766;2023-06-14T10:49:52;6.93;;;6.03;;
35225;SDS011;21813;49.686;21.766;2023-06-14T10:52:22;7.35;;;5.65;;
35225;SDS011;21813;49.686;21.766;2023-06-14T10:54:55;7.47;;;5.88;;
35225;SDS011;21813;49.686;21.766;2023-06-14T10:57:25;8.32;;;6.32;;
35225;SDS011;21813;49.686;21.766;2023-06-14T10:59:50;10.30;;;5.35;;
35225;SDS011;21813;49.686;21.766;2023-06-14T11:04:47;9.77;;;6.22;;
35225;SDS011;21813;49.686;21.766;2023-06-14T11:07:39;6.70;;;5.72;;
35225;SDS011;21813;49.686;21.766;2023-06-14T11:10:32;7.57;;;6.32;;
35225;SDS011;21813;49.686;21.766;2023-06-14T11:13:06;5.93;;;5.00;;
35225;SDS011;21813;49.686;21.766;2023-06-14T11:15:33;6.15;;;4.40;;
35225;SDS011;21813;49.686;21.766;2023-06-14T11:18:02;9.60;;;6.13;;
35225;SDS011;21813;49.686;21.766;2023-06-14T11:20:33;9.10;;;6.43;;
35225;SDS011;21813;49.686;21.766;2023-06-14T11:23:02;8.73;;;6.28;;
35225;SDS011;21813;49.686;21.766;2023-06-14T11:25:32;7.00;;;6.28;;
35225;SDS011;21813;49.686;21.766;2023-06-14T11:27:59;6.43;;;5.80;;
35225;SDS011;21813;49.686;21.766;2023-06-14T11:30:25;6.57;;;5.97;;
35225;SDS011;21813;49.686;21.766;2023-06-14T11:32:53;7.60;;;5.40;;
35225;SDS011;21813;49.686;21.766;2023-06-14T11:35:22;7.90;;;5.05;;
35225;SDS011;21813;49.686;21.766;2023-06-14T11:37:53;5.90;;;4.80;;
35225;SDS011;21813;49.686;21.766;2023-06-14T11:40:23;5.25;;;4.60;;
35225;SDS011;21813;49.686;21.766;2023-06-14T11:42:57;5.85;;;4.90;;
35225;SDS011;21813;49.686;21.766;2023-06-14T11:45:27;6.05;;;4.78;;
35225;SDS011;21813;49.686;21.766;2023-06-14T11:47:57;5.03;;;4.53;;
35225;SDS011;21813;49.686;21.766;2023-06-14T11:50:24;6.93;;;4.50;;
35225;SDS011;21813;49.686;21.766;2023-06-14T11:52:53;6.30;;;4.70;;
35225;SDS011;21813;49.686;21.766;2023-06-14T11:55:20;6.45;;;4.55;;
35225;SDS011;21813;49.686;21.766;2023-06-14T11:57:48;5.70;;;4.40;;
35225;SDS011;21813;49.686;21.766;2023-06-14T12:00:15;6.28;;;4.43;;
35225;SDS011;21813;49.686;21.766;2023-06-14T12:02:52;6.72;;;4.72;;
35225;SDS011;21813;49.686;21.766;2023-06-14T12:05:25;4.70;;;4.20;;
35225;SDS011;21813;49.686;21.766;2023-06-14T12:07:58;5.70;;;3.95;;
35225;SDS011;21813;49.686;21.766;2023-06-14T12:10:25;5.32;;;4.50;;
35225;SDS011;21813;49.686;21.766;2023-06-14T12:12:56;5.05;;;4.32;;
35225;SDS011;21813;49.686;21.766;2023-06-14T12:21:50;4.43;;;3.78;;
35225;SDS011;21813;49.686;21.766;2023-06-14T12:24:23;5.07;;;4.38;;
35225;SDS011;21813;49.686;21.766;2023-06-14T12:32:11;5.22;;;4.15;;
35225;SDS011;21813;49.686;21.766;2023-06-14T12:34:38;4.75;;;3.70;;
35225;SDS011;21813;49.686;21.766;2023-06-14T12:37:07;7.43;;;4.60;;
35225;SDS011;21813;49.686;21.766;2023-06-14T12:39:35;5.43;;;4.60;;
35225;SDS011;21813;49.686;21.766;2023-06-14T12:42:01;6.78;;;4.72;;
35225;SDS011;21813;49.686;21.766;2023-06-14T12:44:40;6.45;;;5.07;;
35225;SDS011;21813;49.686;21.766;2023-06-14T12:47:09;6.50;;;4.47;;
35225;SDS011;21813;49.686;21.766;2023-06-14T12:50:02;5.93;;;4.70;;
35225;SDS011;21813;49.686;21.766;2023-06-14T12:52:32;5.45;;;4.70;;
35225;SDS011;21813;49.686;21.766;2023-06-14T12:55:04;5.03;;;4.47;;
35225;SDS011;21813;49.686;21.766;2023-06-14T12:57:30;4.97;;;4.47;;
35225;SDS011;21813;49.686;21.766;2023-06-14T13:00:08;4.90;;;4.40;;
35225;SDS011;21813;49.686;21.766;2023-06-14T13:02:34;5.22;;;4.72;;
35225;SDS011;21813;49.686;21.766;2023-06-14T13:05:02;9.85;;;4.90;;
35225;SDS011;21813;49.686;21.766;2023-06-14T13:07:29;6.32;;;5.53;;
35225;SDS011;21813;49.686;21.766;2023-06-14T13:10:00;5.97;;;5.37;;
35225;SDS011;21813;49.686;21.766;2023-06-14T13:12:32;6.50;;;4.38;;
35225;SDS011;21813;49.686;21.766;2023-06-14T13:15:01;5.05;;;4.28;;
35225;SDS011;21813;49.686;21.766;2023-06-14T13:17:30;5.07;;;4.57;;
35225;SDS011;21813;49.686;21.766;2023-06-14T13:20:21;5.85;;;4.57;;
35225;SDS011;21813;49.686;21.766;2023-06-14T13:22:49;5.50;;;4.60;;
35225;SDS011;21813;49.686;21.766;2023-06-14T14:00:43;8.05;;;4.95;;
35225;SDS011;21813;49.686;21.766;2023-06-14T14:03:37;5.82;;;4.82;;
35225;SDS011;21813;49.686;21.766;2023-06-14T14:06:09;5.80;;;5.00;;
35225;SDS011;21813;49.686;21.766;2023-06-14T14:08:39;7.18;;;4.88;;
35225;SDS011;21813;49.686;21.766;2023-06-14T14:11:45;6.00;;;4.60;;
35225;SDS011;21813;49.686;21.766;2023-06-14T14:14:32;5.45;;;4.82;;
35225;SDS011;21813;49.686;21.766;2023-06-14T14:17:14;5.85;;;5.25;;
35225;SDS011;21813;49.686;21.766;2023-06-14T14:25:19;4.95;;;4.05;;
35225;SDS011;21813;49.686;21.766;2023-06-14T14:33:21;8.55;;;4.88;;
35225;SDS011;21813;49.686;21.766;2023-06-14T14:41:33;6.95;;;5.40;;
35225;SDS011;21813;49.686;21.766;2023-06-14T14:44:28;8.25;;;5.75;;
35225;SDS011;21813;49.686;21.766;2023-06-14T14:47:29;6.07;;;5.35;;
35225;SDS011;21813;49.686;21.766;2023-06-14T14:58:59;8.65;;;5.53;;
35225;SDS011;21813;49.686;21.766;2023-06-14T15:01:34;7.72;;;5.10;;
35225;SDS011;21813;49.686;21.766;2023-06-14T15:11:46;7.10;;;5.60;;
35225;SDS011;21813;49.686;21.766;2023-06-14T15:30:03;9.63;;;6.65;;
35225;SDS011;21813;49.686;21.766;2023-06-14T15:46:24;13.45;;;7.35;;
35225;SDS011;21813;49.686;21.766;2023-06-14T15:49:12;10.27;;;6.65;;
35225;SDS011;21813;49.686;21.766;2023-06-14T15:54:24;9.60;;;6.10;;
35225;SDS011;21813;49.686;21.766;2023-06-14T15:56:51;7.72;;;6.60;;
35225;SDS011;21813;49.686;21.766;2023-06-14T15:59:16;7.40;;;6.13;;
35225;SDS011;21813;49.686;21.766;2023-06-14T16:04:18;10.02;;;6.75;;
35225;SDS011;21813;49.686;21.766;2023-06-14T16:06:44;8.70;;;5.80;;
35225;SDS011;21813;49.686;21.766;2023-06-14T16:09:10;9.10;;;6.07;;
35225;SDS011;21813;49.686;21.766;2023-06-14T16:11:36;9.00;;;6.28;;
35225;SDS011;21813;49.686;21.766;2023-06-14T16:14:01;8.27;;;6.13;;
35225;SDS011;21813;49.686;21.766;2023-06-14T16:16:28;8.32;;;6.10;;
35225;SDS011;21813;49.686;21.766;2023-06-14T16:18:57;7.30;;;5.88;;
35225;SDS011;21813;49.686;21.766;2023-06-14T16:21:26;9.27;;;5.47;;
35225;SDS011;21813;49.686;21.766;2023-06-14T16:23:55;9.90;;;5.80;;
35225;SDS011;21813;49.686;21.766;2023-06-14T16:26:22;6.63;;;5.93;;
35225;SDS011;21813;49.686;21.766;2023-06-14T16:28:47;7.63;;;6.20;;
35225;SDS011;21813;49.686;21.766;2023-06-14T16:31:14;7.88;;;5.85;;
35225;SDS011;21813;49.686;21.766;2023-06-14T16:33:45;8.07;;;5.68;;
35225;SDS011;21813;49.686;21.766;2023-06-14T16:38:49;7.40;;;6.13;;
35225;SDS011;21813;49.686;21.766;2023-06-14T16:41:17;10.70;;;6.75;;
35225;SDS011;21813;49.686;21.766;2023-06-14T16:46:33;7.93;;;6.32;;
35225;SDS011;21813;49.686;21.766;2023-06-14T16:49:05;8.98;;;5.40;;
35225;SDS011;21813;49.686;21.766;2023-06-14T16:51:31;7.80;;;5.45;;
35225;SDS011;21813;49.686;21.766;2023-06-14T16:54:01;9.70;;;5.82;;